createdAt,value
2019-05-22T00:01:56.806Z,11.20
2019-05-22T00:04:28.415Z,11.20
2019-05-22T00:07:01.520Z,11.20
2019-05-22T00:09:36.307Z,11.20
2019-05-22T00:12:09.026Z,11.20
2019-05-22T00:14:40.474Z,11.20
2019-05-22T00:17:15.337Z,11.20
2019-05-22T00:19:45.934Z,11.20
2019-05-22T00:22:27.426Z,11.20
2019-05-22T00:24:58.480Z,11.20
2019-05-22T00:27:30.462Z,11.20
2019-05-22T00:30:02.112Z,11.20
2019-05-22T00:32:31.130Z,11.20
2019-05-22T00:35:01.222Z,11.20
2019-05-22T00:37:31.011Z,11.20
2019-05-22T00:40:00.587Z,11.20
2019-05-22T00:42:31.962Z,11.20
2019-05-22T00:45:02.454Z,11.20
2019-05-22T00:47:33.906Z,11.20
2019-05-22T00:50:08.371Z,11.20
2019-05-22T00:52:46.335Z,11.20
2019-05-22T00:55:33.391Z,11.10
2019-05-22T00:58:13.651Z,11.10
2019-05-22T01:00:45.185Z,11.10
2019-05-22T01:03:18.718Z,11.10
2019-05-22T01:05:49.100Z,11.10
2019-05-22T01:08:18.638Z,11.20
2019-05-22T01:10:50.766Z,11.20
2019-05-22T01:13:21.466Z,11.10
2019-05-22T01:15:52.030Z,11.20
2019-05-22T01:18:25.429Z,11.20
2019-05-22T01:20:58.494Z,11.20
2019-05-22T01:23:30.786Z,11.20
2019-05-22T01:26:01.554Z,11.10
2019-05-22T01:28:32.618Z,11.10
2019-05-22T01:31:08.753Z,11.20
2019-05-22T01:34:13.188Z,11.10
2019-05-22T01:36:45.499Z,11.10
2019-05-22T01:39:36.494Z,11.10
2019-05-22T01:42:08.401Z,11.20
2019-05-22T01:44:37.990Z,11.10
2019-05-22T01:47:13.323Z,11.10
2019-05-22T01:49:51.754Z,11.10
2019-05-22T01:52:21.242Z,11.10
2019-05-22T01:54:52.312Z,11.10
2019-05-22T01:57:23.577Z,11.10
2019-05-22T01:59:53.970Z,11.10
2019-05-22T02:02:26.124Z,11.10
2019-05-22T02:04:58.461Z,11.10
2019-05-22T02:07:28.991Z,11.10
2019-05-22T02:09:59.490Z,11.10
2019-05-22T02:12:41.112Z,11.10
2019-05-22T02:15:11.117Z,11.10
2019-05-22T02:17:41.739Z,11.10
2019-05-22T02:20:11.130Z,11.10
2019-05-22T02:22:40.575Z,11.10
2019-05-22T02:25:09.855Z,11.10
2019-05-22T02:27:40.556Z,11.10
2019-05-22T02:30:10.838Z,11.10
2019-05-22T02:32:41.028Z,11.10
2019-05-22T02:35:11.118Z,11.00
2019-05-22T02:37:41.703Z,11.00
2019-05-22T02:40:17.483Z,11.00
2019-05-22T02:42:47.399Z,11.10
2019-05-22T02:45:17.427Z,11.10
2019-05-22T02:47:46.603Z,11.00
2019-05-22T02:50:16.098Z,11.00
2019-05-22T02:52:45.171Z,11.10
2019-05-22T02:55:14.343Z,11.00
2019-05-22T02:57:43.851Z,11.00
2019-05-22T03:00:14.419Z,11.00
2019-05-22T03:02:53.310Z,11.00
2019-05-22T03:05:24.795Z,11.00
2019-05-22T03:07:54.619Z,11.00
2019-05-22T03:10:26.616Z,11.00
2019-05-22T03:12:56.734Z,11.00
2019-05-22T03:15:27.703Z,11.00
2019-05-22T03:18:01.602Z,11.00
2019-05-22T03:20:33.952Z,11.00
2019-05-22T03:23:34.803Z,11.00
2019-05-22T03:26:05.659Z,11.00
2019-05-22T03:28:35.566Z,11.00
2019-05-22T03:31:06.473Z,11.00
2019-05-22T03:33:35.555Z,11.00
2019-05-22T03:36:09.580Z,11.00
2019-05-22T03:38:40.845Z,11.00
2019-05-22T03:41:11.978Z,11.00
2019-05-22T03:43:44.983Z,11.00
2019-05-22T03:46:38.756Z,11.00
2019-05-22T03:49:28.053Z,11.00
2019-05-22T03:51:42.650Z,11.00
2019-05-22T03:54:12.744Z,11.00
2019-05-22T03:56:42.640Z,11.00
2019-05-22T03:59:12.794Z,11.00
2019-05-22T04:01:43.555Z,11.00
2019-05-22T04:04:16.226Z,11.00
2019-05-22T04:06:45.363Z,11.00
2019-05-22T04:09:20.219Z,11.00
2019-05-22T04:11:50.438Z,11.00
2019-05-22T04:14:21.528Z,11.00
2019-05-22T04:16:51.694Z,11.00
2019-05-22T04:19:21.328Z,11.00
2019-05-22T04:21:50.421Z,11.00
2019-05-22T04:24:20.486Z,11.00
2019-05-22T04:26:50.270Z,11.00
2019-05-22T04:29:19.330Z,11.00
2019-05-22T04:32:09.180Z,11.00
2019-05-22T04:34:38.209Z,11.00
2019-05-22T04:37:09.080Z,11.00
2019-05-22T04:39:41.429Z,11.00
2019-05-22T04:42:11.821Z,11.00
2019-05-22T04:44:59.012Z,11.00
2019-05-22T04:47:28.075Z,11.00
2019-05-22T04:50:07.678Z,11.00
2019-05-22T04:52:28.706Z,11.00
2019-05-22T04:54:58.979Z,11.00
2019-05-22T04:57:28.214Z,11.00
2019-05-22T04:59:57.166Z,11.00
2019-05-22T05:02:26.751Z,11.00
2019-05-22T05:04:55.776Z,11.00
2019-05-22T05:07:25.775Z,11.00
2019-05-22T05:09:54.889Z,11.00
2019-05-22T05:12:24.384Z,11.00
2019-05-22T05:14:53.691Z,11.00
2019-05-22T05:17:23.290Z,11.00
2019-05-22T05:19:52.305Z,11.00
2019-05-22T05:22:29.094Z,11.00
2019-05-22T05:24:57.978Z,11.00
2019-05-22T05:27:28.003Z,11.00
2019-05-22T05:29:56.938Z,11.00
2019-05-22T05:32:26.634Z,11.00
2019-05-22T05:35:00.718Z,11.10
2019-05-22T05:37:29.914Z,11.10
2019-05-22T05:40:29.569Z,11.10
2019-05-22T05:42:59.774Z,11.20
2019-05-22T05:45:30.476Z,11.20
2019-05-22T05:48:00.077Z,11.20
2019-05-22T05:50:38.961Z,11.20
2019-05-22T05:53:01.882Z,11.30
2019-05-22T05:55:44.044Z,11.20
2019-05-22T05:58:32.770Z,11.30
2019-05-22T06:01:17.168Z,11.20
2019-05-22T06:03:46.384Z,11.20
2019-05-22T06:07:02.937Z,11.20
2019-05-22T06:09:32.423Z,11.20
2019-05-22T06:12:05.754Z,11.20
2019-05-22T06:14:36.282Z,11.20
2019-05-22T06:18:00.919Z,11.20
2019-05-22T06:20:31.188Z,11.30
2019-05-22T06:23:52.150Z,11.30
2019-05-22T06:26:31.502Z,11.30
2019-05-22T06:29:00.454Z,11.30
2019-05-22T06:31:41.791Z,11.30
2019-05-22T06:34:11.220Z,11.30
2019-05-22T06:36:42.070Z,11.30
2019-05-22T06:39:13.753Z,11.30
2019-05-22T06:41:43.975Z,11.40
2019-05-22T06:44:40.739Z,11.30
2019-05-22T06:47:13.095Z,11.30
2019-05-22T06:49:47.605Z,11.30
2019-05-22T06:52:16.899Z,11.30
2019-05-22T06:54:46.212Z,11.30
2019-05-22T06:57:28.450Z,11.30
2019-05-22T07:00:21.579Z,11.20
2019-05-22T07:02:51.321Z,11.20
2019-05-22T07:05:20.626Z,11.20
2019-05-22T07:07:49.923Z,11.20
2019-05-22T07:10:20.601Z,11.20
2019-05-22T07:12:50.698Z,11.30
2019-05-22T07:15:43.878Z,11.30
2019-05-22T07:18:14.568Z,11.30
2019-05-22T07:20:45.700Z,11.30
2019-05-22T07:23:20.485Z,11.30
2019-05-22T07:25:50.008Z,11.30
2019-05-22T07:28:20.226Z,11.30
2019-05-22T07:30:50.958Z,11.30
2019-05-22T07:33:20.807Z,11.30
2019-05-22T07:36:08.386Z,11.30
2019-05-22T07:38:21.133Z,11.30
2019-05-22T07:40:51.874Z,11.40
2019-05-22T07:43:22.283Z,11.40
2019-05-22T07:45:52.696Z,11.40
2019-05-22T07:48:25.652Z,11.40
2019-05-22T07:50:55.298Z,11.50
2019-05-22T07:53:26.423Z,11.50
2019-05-22T07:55:57.652Z,11.40
2019-05-22T07:58:29.522Z,11.50
2019-05-22T08:01:00.527Z,11.50
2019-05-22T08:03:31.809Z,11.60
2019-05-22T08:06:01.390Z,11.60
2019-05-22T08:08:32.978Z,11.70
2019-05-22T08:11:02.012Z,11.80
2019-05-22T08:13:32.197Z,11.90
2019-05-22T08:16:02.254Z,11.90
2019-05-22T08:18:33.747Z,11.90
2019-05-22T08:21:02.972Z,11.90
2019-05-22T08:23:32.541Z,11.80
2019-05-22T08:26:01.574Z,11.80
2019-05-22T08:28:32.943Z,11.70
2019-05-22T08:31:03.395Z,12.40
2019-05-22T08:33:35.029Z,11.80
2019-05-22T08:36:04.742Z,11.90
2019-05-22T08:38:34.755Z,11.90
2019-05-22T08:41:06.862Z,11.80
2019-05-22T08:44:03.277Z,11.80
2019-05-22T08:46:08.691Z,11.90
2019-05-22T08:48:46.943Z,11.90
2019-05-22T08:51:12.365Z,11.90
2019-05-22T08:53:47.533Z,11.80
2019-05-22T08:56:12.988Z,12.00
2019-05-22T08:58:44.273Z,12.00
2019-05-22T09:01:14.405Z,12.00
2019-05-22T09:03:43.840Z,11.90
2019-05-22T09:06:13.172Z,12.00
2019-05-22T09:09:01.360Z,12.00
2019-05-22T09:11:30.350Z,12.00
2019-05-22T09:13:59.450Z,12.00
2019-05-22T09:16:29.147Z,12.00
2019-05-22T09:18:58.906Z,12.10
2019-05-22T09:21:28.075Z,12.10
2019-05-22T09:23:57.106Z,12.30
2019-05-22T09:26:26.818Z,12.40
2019-05-22T09:28:55.840Z,12.40
2019-05-22T09:31:24.844Z,12.50
2019-05-22T09:33:54.666Z,12.50
2019-05-22T09:36:23.603Z,12.70
2019-05-22T09:38:52.945Z,12.70
2019-05-22T09:41:21.917Z,12.80
2019-05-22T09:43:51.170Z,12.80
2019-05-22T09:46:20.503Z,12.90
2019-05-22T09:48:49.610Z,12.80
2019-05-22T09:51:19.540Z,12.70
2019-05-22T09:53:48.886Z,12.60
2019-05-22T09:56:18.126Z,12.60
2019-05-22T09:58:47.138Z,12.50
2019-05-22T10:01:16.622Z,12.50
2019-05-22T10:03:45.704Z,12.50
2019-05-22T10:06:15.111Z,12.50
2019-05-22T10:08:44.210Z,12.50
2019-05-22T10:11:13.255Z,12.60
2019-05-22T10:13:42.260Z,12.60
2019-05-22T10:16:11.680Z,12.70
2019-05-22T10:18:41.402Z,12.90
2019-05-22T10:21:11.098Z,13.00
2019-05-22T10:23:41.035Z,13.20
2019-05-22T10:26:11.002Z,13.20
2019-05-22T10:28:40.895Z,13.40
2019-05-22T10:31:11.326Z,13.50
2019-05-22T10:33:41.611Z,13.50
2019-05-22T10:36:10.856Z,13.50
2019-05-22T10:38:39.869Z,13.40
2019-05-22T10:41:09.830Z,13.40
2019-05-22T10:43:39.624Z,13.30
2019-05-22T10:46:09.463Z,13.10
2019-05-22T10:48:40.570Z,12.90
2019-05-22T10:51:09.994Z,12.80
2019-05-22T10:53:39.757Z,12.60
2019-05-22T10:56:08.909Z,12.50
2019-05-22T10:58:38.935Z,12.50
2019-05-22T11:01:09.836Z,12.50
2019-05-22T11:03:39.028Z,12.40
2019-05-22T11:06:08.637Z,12.40
2019-05-22T11:08:38.215Z,12.40
2019-05-22T11:11:08.120Z,12.40
2019-05-22T11:13:37.908Z,12.30
2019-05-22T11:16:08.184Z,12.30
2019-05-22T11:18:37.206Z,12.30
2019-05-22T11:21:06.800Z,12.20
2019-05-22T11:23:50.327Z,12.20
2019-05-22T11:26:06.966Z,12.20
2019-05-22T11:28:35.983Z,12.10
2019-05-22T11:31:05.979Z,12.10
2019-05-22T11:33:35.651Z,12.10
2019-05-22T11:36:05.459Z,12.20
2019-05-22T11:38:34.545Z,12.20
2019-05-22T11:41:04.646Z,12.20
2019-05-22T11:43:34.740Z,12.30
2019-05-22T11:46:04.842Z,12.30
2019-05-22T11:48:34.450Z,12.30
2019-05-22T11:51:04.427Z,12.20
2019-05-22T11:53:33.437Z,12.20
2019-05-22T11:56:02.692Z,12.20
2019-05-22T11:58:32.428Z,12.20
2019-05-22T12:01:01.932Z,12.30
2019-05-22T12:03:33.026Z,12.50
2019-05-22T12:06:03.020Z,12.60
2019-05-22T12:08:33.153Z,12.60
2019-05-22T12:11:03.162Z,12.70
2019-05-22T12:13:32.685Z,12.70
2019-05-22T12:16:04.168Z,12.70
2019-05-22T12:18:33.623Z,12.80
2019-05-22T12:21:03.426Z,12.70
2019-05-22T12:23:33.896Z,12.80
2019-05-22T12:26:02.822Z,12.70
2019-05-22T12:28:31.842Z,12.70
2019-05-22T12:31:00.851Z,12.70
2019-05-22T12:33:30.620Z,12.80
2019-05-22T12:36:00.175Z,12.80
2019-05-22T12:38:31.066Z,12.80
2019-05-22T12:41:00.311Z,12.90
2019-05-22T12:43:31.078Z,13.00
2019-05-22T12:46:00.132Z,12.90
2019-05-22T12:48:29.763Z,12.90
2019-05-22T12:50:59.356Z,12.80
2019-05-22T12:53:29.346Z,12.80
2019-05-22T12:55:59.677Z,12.70
2019-05-22T12:58:29.098Z,12.70
2019-05-22T13:00:59.725Z,12.60
2019-05-22T13:03:29.918Z,12.70
2019-05-22T13:05:59.467Z,12.70
2019-05-22T13:08:29.348Z,12.70
2019-05-22T13:10:59.479Z,12.70
2019-05-22T13:13:28.975Z,12.80
2019-05-22T13:16:00.406Z,12.70
2019-05-22T13:18:31.607Z,12.80
2019-05-22T13:21:03.078Z,12.70
2019-05-22T13:23:38.078Z,12.60
2019-05-22T13:26:07.978Z,12.60
2019-05-22T13:28:39.226Z,12.60
2019-05-22T13:31:10.138Z,12.70
2019-05-22T13:33:42.036Z,12.70
2019-05-22T13:36:13.033Z,12.80
2019-05-22T13:38:42.843Z,12.80
2019-05-22T13:41:12.623Z,12.80
2019-05-22T13:43:42.024Z,12.80
2019-05-22T13:46:11.148Z,12.80
2019-05-22T13:48:40.238Z,12.80
2019-05-22T13:51:11.646Z,12.80
2019-05-22T13:53:42.406Z,12.90
2019-05-22T13:56:13.237Z,12.90
2019-05-22T13:58:43.503Z,13.00
2019-05-22T14:01:12.816Z,13.00
2019-05-22T14:03:42.004Z,13.10
2019-05-22T14:06:12.036Z,13.20
2019-05-22T14:09:00.267Z,13.30
2019-05-22T14:11:29.298Z,13.30
2019-05-22T14:13:58.679Z,13.20
2019-05-22T14:16:28.688Z,13.20
2019-05-22T14:18:57.772Z,13.30
2019-05-22T14:21:27.122Z,13.50
2019-05-22T14:23:56.047Z,13.60
2019-05-22T14:26:25.150Z,13.70
2019-05-22T14:28:54.348Z,13.80
2019-05-22T14:31:23.346Z,13.80
2019-05-22T14:33:52.443Z,13.90
2019-05-22T14:36:21.694Z,13.90
2019-05-22T14:38:50.964Z,14.20
2019-05-22T14:41:20.451Z,14.30
2019-05-22T14:43:49.567Z,14.40
2019-05-22T14:46:19.097Z,14.50
2019-05-22T14:48:48.848Z,14.60
2019-05-22T14:51:20.024Z,14.60
2019-05-22T14:53:52.272Z,14.80
2019-05-22T14:56:22.126Z,14.80
2019-05-22T14:58:51.526Z,14.70
2019-05-22T15:01:21.741Z,14.80
2019-05-22T15:03:51.110Z,14.70
2019-05-22T15:06:20.743Z,14.80
2019-05-22T15:08:49.898Z,15.20
2019-05-22T15:11:19.717Z,15.30
2019-05-22T15:13:49.129Z,15.30
2019-05-22T15:16:18.240Z,15.30
2019-05-22T15:18:47.230Z,15.30
2019-05-22T15:21:18.174Z,15.40
2019-05-22T15:23:48.702Z,15.30
2019-05-22T15:26:18.378Z,15.20
2019-05-22T15:28:47.717Z,15.40
2019-05-22T15:31:17.228Z,15.30
2019-05-22T15:33:46.318Z,15.10
2019-05-22T15:36:19.118Z,14.90
2019-05-22T15:38:49.683Z,14.90
2019-05-22T15:41:19.601Z,14.70
2019-05-22T15:43:52.958Z,14.70
2019-05-22T15:46:21.622Z,14.50
2019-05-22T15:48:53.418Z,14.40
2019-05-22T15:51:27.898Z,14.30
2019-05-22T15:54:00.374Z,14.10
2019-05-22T15:56:31.686Z,14.10
2019-05-22T15:59:02.762Z,13.90
2019-05-22T16:01:35.363Z,13.80
2019-05-22T16:04:06.172Z,13.70
2019-05-22T16:06:35.768Z,13.60
2019-05-22T16:09:08.219Z,13.60
2019-05-22T16:11:37.514Z,13.50
2019-05-22T16:14:07.619Z,13.50
2019-05-22T16:16:37.335Z,13.50
2019-05-22T16:19:09.137Z,13.50
2019-05-22T16:21:42.025Z,13.40
2019-05-22T16:24:11.776Z,13.40
2019-05-22T16:26:42.338Z,13.40
2019-05-22T16:29:12.551Z,13.40
2019-05-22T16:31:43.527Z,13.40
2019-05-22T16:34:13.173Z,13.40
2019-05-22T16:36:44.703Z,13.40
2019-05-22T16:39:15.803Z,13.40
2019-05-22T16:41:44.886Z,13.40
2019-05-22T16:44:14.867Z,13.40
2019-05-22T16:46:44.968Z,13.40
2019-05-22T16:49:14.931Z,13.50
2019-05-22T16:51:45.470Z,13.50
2019-05-22T16:54:20.450Z,13.50
2019-05-22T16:56:47.398Z,13.50
2019-05-22T16:59:18.745Z,13.50
2019-05-22T17:01:58.629Z,13.50
2019-05-22T17:04:19.297Z,13.50
2019-05-22T17:06:49.011Z,13.50
2019-05-22T17:09:19.283Z,13.50
2019-05-22T17:11:49.290Z,13.50
2019-05-22T17:14:20.879Z,13.50
2019-05-22T17:16:51.461Z,13.40
2019-05-22T17:19:27.036Z,13.40
2019-05-22T17:21:52.484Z,13.40
2019-05-22T17:24:22.945Z,13.40
2019-05-22T17:26:53.531Z,13.50
2019-05-22T17:29:23.076Z,13.60
2019-05-22T17:31:52.370Z,13.60
2019-05-22T17:34:37.618Z,13.60
2019-05-22T17:37:13.755Z,13.70
2019-05-22T17:39:45.420Z,13.60
2019-05-22T17:42:21.248Z,13.60
2019-05-22T17:44:52.754Z,13.60
2019-05-22T17:47:24.730Z,13.50
2019-05-22T17:49:54.411Z,13.50
2019-05-22T17:52:24.418Z,13.40
2019-05-22T17:54:53.484Z,13.40
2019-05-22T17:57:24.048Z,13.40
2019-05-22T17:59:54.464Z,13.30
2019-05-22T18:02:26.142Z,13.20
2019-05-22T18:04:55.577Z,13.20
2019-05-22T18:07:25.339Z,13.20
2019-05-22T18:09:55.021Z,13.20
2019-05-22T18:12:24.599Z,13.20
2019-05-22T18:14:54.175Z,13.20
2019-05-22T18:17:24.052Z,13.10
2019-05-22T18:19:53.545Z,13.10
2019-05-22T18:22:22.471Z,13.10
2019-05-22T18:24:51.614Z,13.00
2019-05-22T18:27:20.857Z,13.00
2019-05-22T18:30:02.078Z,12.90
2019-05-22T18:32:34.061Z,12.90
2019-05-22T18:35:03.061Z,12.80
2019-05-22T18:37:31.986Z,12.80
2019-05-22T18:40:01.096Z,12.80
2019-05-22T18:42:30.318Z,12.70
2019-05-22T18:44:59.441Z,12.70
2019-05-22T18:47:28.460Z,12.70
2019-05-22T18:49:57.478Z,12.60
2019-05-22T18:52:40.034Z,12.50
2019-05-22T18:54:57.146Z,12.40
2019-05-22T18:57:26.128Z,12.30
2019-05-22T19:00:01.136Z,12.30
2019-05-22T19:02:26.494Z,12.20
2019-05-22T19:04:55.677Z,12.20
2019-05-22T19:07:25.075Z,12.10
2019-05-22T19:09:54.576Z,12.10
2019-05-22T19:12:23.921Z,12.10
2019-05-22T19:14:53.135Z,12.00
2019-05-22T19:17:22.606Z,11.90
2019-05-22T19:19:51.717Z,11.90
2019-05-22T19:22:21.433Z,11.80
2019-05-22T19:24:50.434Z,11.80
2019-05-22T19:27:19.610Z,11.70
2019-05-22T19:29:48.535Z,11.60
2019-05-22T19:32:17.802Z,11.60
2019-05-22T19:34:46.776Z,11.50
2019-05-22T19:37:16.533Z,11.50
2019-05-22T19:40:06.590Z,11.40
2019-05-22T19:42:35.910Z,11.40
2019-05-22T19:45:05.469Z,11.40
2019-05-22T19:47:35.998Z,11.40
2019-05-22T19:50:22.012Z,11.30
2019-05-22T19:52:42.144Z,11.20
2019-05-22T19:55:14.036Z,11.20
2019-05-22T19:57:44.078Z,11.20
2019-05-22T20:00:14.374Z,11.20
2019-05-22T20:02:43.609Z,11.20
2019-05-22T20:05:13.211Z,11.20
2019-05-22T20:07:42.716Z,11.10
2019-05-22T20:10:13.046Z,11.10
2019-05-22T20:12:43.830Z,11.00
2019-05-22T20:15:13.822Z,10.90
2019-05-22T20:17:43.331Z,10.80
2019-05-22T20:20:15.727Z,10.70
2019-05-22T20:22:45.745Z,10.60
2019-05-22T20:25:16.566Z,10.60
2019-05-22T20:27:46.258Z,10.50
2019-05-22T20:30:18.220Z,10.40
2019-05-22T20:32:47.526Z,10.30
2019-05-22T20:35:17.666Z,10.20
2019-05-22T20:37:48.367Z,10.20
2019-05-22T20:40:19.231Z,10.10
2019-05-22T20:42:48.567Z,10.00
2019-05-22T20:45:20.913Z,9.90
2019-05-22T20:47:56.194Z,9.80
2019-05-22T20:50:25.230Z,9.80
2019-05-22T20:52:55.014Z,9.70
2019-05-22T20:55:24.480Z,9.60
2019-05-22T20:57:53.979Z,9.50
2019-05-22T21:00:25.649Z,9.50
2019-05-22T21:03:02.415Z,9.40
2019-05-22T21:05:31.698Z,9.40
2019-05-22T21:08:06.996Z,9.30
2019-05-22T21:10:37.379Z,9.30
2019-05-22T21:13:08.452Z,9.20
2019-05-22T21:15:38.550Z,9.10
2019-05-22T21:18:08.123Z,9.10
2019-05-22T21:20:53.609Z,9.00
2019-05-22T21:23:12.410Z,9.00
2019-05-22T21:25:41.522Z,8.90
2019-05-22T21:28:10.591Z,8.90
2019-05-22T21:30:41.518Z,8.80
2019-05-22T21:33:11.116Z,8.70
2019-05-22T21:35:40.436Z,8.60
2019-05-22T21:38:09.354Z,8.60
2019-05-22T21:40:38.826Z,8.50
2019-05-22T21:43:07.767Z,8.50
2019-05-22T21:45:37.162Z,8.50
2019-05-22T21:48:07.520Z,8.50
2019-05-22T21:50:37.961Z,8.50
2019-05-22T21:53:11.520Z,8.40
2019-05-22T21:55:45.408Z,8.40
2019-05-22T21:58:13.494Z,8.30
2019-05-22T22:01:03.759Z,8.20
2019-05-22T22:03:38.499Z,8.10
2019-05-22T22:06:08.297Z,8.00
2019-05-22T22:08:37.838Z,8.00
2019-05-22T22:11:07.530Z,7.90
2019-05-22T22:13:38.058Z,7.90
2019-05-22T22:16:09.020Z,7.90
2019-05-22T22:18:39.947Z,7.90
2019-05-22T22:21:10.713Z,7.80
2019-05-22T22:23:39.635Z,7.80
2019-05-22T22:26:24.739Z,7.80
2019-05-22T22:28:40.795Z,7.80
2019-05-22T22:31:12.070Z,7.80
2019-05-22T22:33:44.653Z,7.80
2019-05-22T22:36:13.655Z,7.80
2019-05-22T22:38:43.572Z,7.80
2019-05-22T22:41:15.459Z,7.90
2019-05-22T22:43:48.311Z,7.90
2019-05-22T22:46:29.951Z,8.00
2019-05-22T22:49:01.737Z,8.00
2019-05-22T22:51:31.511Z,7.90
2019-05-22T22:54:01.082Z,7.90
2019-05-22T22:56:30.809Z,7.80
2019-05-22T22:59:00.474Z,7.80
2019-05-22T23:01:33.092Z,7.70
2019-05-22T23:04:05.261Z,7.70
2019-05-22T23:06:36.387Z,7.70
2019-05-22T23:09:10.179Z,7.60
2019-05-22T23:11:41.649Z,7.60
2019-05-22T23:14:11.290Z,7.50
2019-05-22T23:16:41.770Z,7.40
2019-05-22T23:19:33.701Z,7.40
2019-05-22T23:22:03.278Z,7.30
2019-05-22T23:24:32.730Z,7.20
2019-05-22T23:27:02.018Z,7.20
2019-05-22T23:29:32.709Z,7.10
2019-05-22T23:32:02.346Z,7.10
2019-05-22T23:34:32.030Z,7.10
2019-05-22T23:37:02.783Z,7.00
2019-05-22T23:39:33.299Z,7.00
2019-05-22T23:42:10.002Z,7.00
2019-05-22T23:44:39.775Z,6.90
2019-05-22T23:47:11.226Z,6.90
2019-05-22T23:49:41.328Z,6.80
2019-05-22T23:52:12.487Z,6.80
2019-05-22T23:54:41.956Z,6.80
2019-05-22T23:57:13.034Z,6.80
2019-05-22T23:59:45.746Z,6.70
